createdAt,value
2024-01-18T00:01:15.226Z,10.00
2024-01-18T00:03:45.408Z,7.03
2024-01-18T00:06:13.360Z,6.13
2024-01-18T00:08:41.065Z,7.10
2024-01-18T00:11:08.805Z,5.60
2024-01-18T00:13:39.044Z,6.87
2024-01-18T00:16:08.228Z,5.77
2024-01-18T00:18:35.983Z,7.50
2024-01-18T00:21:04.490Z,4.90
2024-01-18T00:23:32.355Z,6.80
2024-01-18T00:26:00.232Z,6.97
2024-01-18T00:28:27.999Z,6.30
2024-01-18T00:30:55.834Z,5.60
2024-01-18T00:33:26.607Z,4.47
2024-01-18T00:35:54.325Z,4.20
2024-01-18T00:38:22.010Z,5.40
2024-01-18T00:40:49.632Z,6.23
2024-01-18T00:43:17.666Z,4.23
2024-01-18T00:45:45.505Z,4.77
2024-01-18T00:48:14.436Z,5.10
2024-01-18T00:50:46.097Z,5.83
2024-01-18T00:53:13.754Z,4.33
2024-01-18T00:55:41.398Z,5.00
2024-01-18T00:58:11.275Z,6.00
2024-01-18T01:00:39.361Z,5.47
2024-01-18T01:03:07.575Z,4.33
2024-01-18T01:05:35.326Z,5.43
2024-01-18T01:08:04.736Z,4.63
2024-01-18T01:10:32.607Z,5.17
2024-01-18T01:13:00.214Z,3.97
2024-01-18T01:15:27.956Z,4.97
2024-01-18T01:17:56.293Z,5.20
2024-01-18T01:20:24.277Z,4.53
2024-01-18T01:22:51.976Z,4.13
2024-01-18T01:25:21.496Z,5.27
2024-01-18T01:27:51.589Z,3.73
2024-01-18T01:30:19.381Z,5.27
2024-01-18T01:32:47.104Z,5.90
2024-01-18T01:35:14.908Z,4.50
2024-01-18T01:37:42.630Z,4.30
2024-01-18T01:40:12.570Z,4.20
2024-01-18T01:42:42.120Z,4.23
2024-01-18T01:45:10.227Z,4.83
2024-01-18T01:47:37.941Z,5.10
2024-01-18T01:50:07.154Z,4.63
2024-01-18T01:52:36.590Z,4.30
2024-01-18T01:55:04.932Z,4.03
2024-01-18T01:57:32.896Z,4.70
2024-01-18T02:00:02.388Z,6.77
2024-01-18T02:02:30.235Z,6.03
2024-01-18T02:04:58.421Z,5.33
2024-01-18T02:07:28.242Z,5.47
2024-01-18T02:09:56.477Z,4.60
2024-01-18T02:12:25.878Z,4.90
2024-01-18T02:14:53.920Z,3.97
2024-01-18T02:17:23.060Z,5.80
2024-01-18T02:19:50.687Z,6.10
2024-01-18T02:22:19.137Z,6.23
2024-01-18T02:24:52.210Z,9.83
2024-01-18T02:27:21.533Z,8.50
2024-01-18T02:29:50.173Z,5.70
2024-01-18T02:32:17.799Z,7.60
2024-01-18T02:34:45.590Z,5.60
2024-01-18T02:37:13.768Z,4.37
2024-01-18T02:39:41.507Z,6.03
2024-01-18T02:42:09.362Z,7.80
2024-01-18T02:44:40.142Z,5.57
2024-01-18T02:47:07.812Z,5.77
2024-01-18T02:49:38.675Z,5.60
2024-01-18T02:52:07.665Z,5.47
2024-01-18T02:54:35.419Z,6.67
2024-01-18T02:57:03.111Z,5.60
2024-01-18T02:59:30.829Z,4.30
2024-01-18T03:02:00.038Z,4.60
2024-01-18T03:04:27.866Z,3.50
2024-01-18T03:06:55.536Z,4.60
2024-01-18T03:09:23.435Z,4.00
2024-01-18T03:11:51.577Z,5.73
2024-01-18T03:14:21.985Z,5.30
2024-01-18T03:16:49.642Z,4.07
2024-01-18T03:19:18.776Z,3.50
2024-01-18T03:21:46.630Z,4.50
2024-01-18T03:24:14.333Z,4.93
2024-01-18T03:26:42.133Z,3.27
2024-01-18T03:29:10.224Z,3.37
2024-01-18T03:31:37.956Z,3.30
2024-01-18T03:34:05.578Z,5.57
2024-01-18T03:36:34.759Z,3.70
2024-01-18T03:39:02.717Z,3.20
2024-01-18T03:41:30.368Z,3.33
2024-01-18T03:43:58.113Z,3.13
2024-01-18T03:46:25.802Z,3.00
2024-01-18T03:48:53.589Z,2.73
2024-01-18T03:51:21.326Z,3.20
2024-01-18T03:53:50.399Z,3.47
2024-01-18T03:56:22.192Z,3.53
2024-01-18T03:58:49.868Z,5.33
2024-01-18T04:01:17.580Z,4.80
2024-01-18T04:03:49.593Z,4.00
2024-01-18T04:06:17.912Z,4.07
2024-01-18T04:08:45.612Z,4.90
2024-01-18T04:11:15.895Z,4.70
2024-01-18T04:13:45.892Z,3.73
2024-01-18T04:16:13.648Z,5.53
2024-01-18T04:18:41.426Z,4.50
2024-01-18T04:21:09.171Z,4.27
2024-01-18T04:23:36.988Z,5.30
2024-01-18T04:26:05.515Z,4.07
2024-01-18T04:28:34.745Z,5.83
2024-01-18T04:31:03.177Z,4.23
2024-01-18T04:33:30.873Z,4.30
2024-01-18T04:35:59.090Z,3.60
2024-01-18T04:38:26.790Z,8.30
2024-01-18T04:40:56.605Z,7.33
2024-01-18T04:43:24.866Z,5.10
2024-01-18T04:45:54.158Z,8.63
2024-01-18T04:48:23.941Z,7.33
2024-01-18T04:50:55.490Z,5.27
2024-01-18T04:53:23.170Z,4.43
2024-01-18T04:55:51.288Z,6.43
2024-01-18T04:58:19.045Z,7.13
2024-01-18T05:00:47.619Z,5.50
2024-01-18T05:03:18.727Z,6.53
2024-01-18T05:05:46.557Z,5.67
2024-01-18T05:08:14.436Z,5.57
2024-01-18T05:10:42.144Z,6.20
2024-01-18T05:13:10.269Z,5.50
2024-01-18T05:15:38.028Z,4.43
2024-01-18T05:18:15.428Z,4.87
2024-01-18T05:20:44.640Z,6.13
2024-01-18T05:23:12.549Z,6.57
2024-01-18T05:25:40.211Z,5.17
2024-01-18T05:28:07.993Z,7.23
2024-01-18T05:30:36.019Z,6.10
2024-01-18T05:33:04.068Z,7.47
2024-01-18T05:35:31.960Z,4.70
2024-01-18T05:38:01.206Z,6.23
2024-01-18T05:40:29.007Z,5.57
2024-01-18T05:42:56.797Z,4.93
2024-01-18T05:45:24.505Z,6.60
2024-01-18T05:47:52.607Z,6.30
2024-01-18T05:50:24.291Z,6.60
2024-01-18T05:52:53.291Z,5.17
2024-01-18T05:55:22.460Z,9.30
2024-01-18T05:57:50.818Z,7.43
2024-01-18T06:03:10.591Z,5.73
2024-01-18T06:05:38.382Z,7.83
2024-01-18T06:08:10.560Z,7.70
2024-01-18T06:10:39.558Z,10.10
2024-01-18T06:13:09.745Z,8.10
2024-01-18T06:15:37.466Z,8.43
2024-01-18T06:18:21.026Z,6.53
2024-01-18T06:20:52.296Z,9.90
2024-01-18T06:23:21.827Z,10.70
2024-01-18T06:25:59.150Z,9.30
2024-01-18T06:28:26.975Z,11.80
2024-01-18T06:30:57.400Z,8.83
2024-01-18T06:33:26.105Z,11.60
2024-01-18T06:35:58.184Z,10.67
2024-01-18T06:38:25.876Z,10.60
2024-01-18T06:40:59.769Z,10.67
2024-01-18T06:43:30.833Z,9.90
2024-01-18T06:45:59.907Z,9.27
2024-01-18T06:48:27.682Z,14.00
2024-01-18T06:50:55.780Z,10.70
2024-01-18T06:53:24.294Z,10.20
2024-01-18T06:55:52.338Z,10.97
2024-01-18T06:58:20.227Z,11.30
2024-01-18T07:00:51.912Z,8.67
2024-01-18T07:03:19.910Z,7.07
2024-01-18T07:05:48.113Z,7.13
2024-01-18T07:08:15.898Z,7.60
2024-01-18T07:10:49.277Z,8.50
2024-01-18T07:13:18.039Z,9.60
2024-01-18T07:15:46.136Z,10.47
2024-01-18T07:18:15.547Z,9.90
2024-01-18T07:20:43.881Z,6.43
2024-01-18T07:23:11.516Z,11.33
2024-01-18T07:25:39.241Z,8.13
2024-01-18T07:28:07.128Z,13.40
2024-01-18T07:30:34.922Z,9.70
2024-01-18T07:33:02.894Z,11.90
2024-01-18T07:35:32.014Z,13.60
2024-01-18T07:38:00.242Z,10.37
2024-01-18T07:40:28.227Z,11.03
2024-01-18T07:42:57.680Z,10.37
2024-01-18T07:45:25.545Z,10.17
2024-01-18T07:47:54.426Z,11.87
2024-01-18T07:50:33.613Z,10.73
2024-01-18T07:53:05.657Z,10.53
2024-01-18T07:55:33.377Z,10.30
2024-01-18T07:58:01.470Z,12.37
2024-01-18T08:00:29.951Z,11.73
2024-01-18T08:02:57.925Z,13.60
2024-01-18T08:05:28.690Z,8.13
2024-01-18T08:07:57.464Z,11.33
2024-01-18T08:10:27.481Z,10.50
2024-01-18T08:13:13.570Z,12.47
2024-01-18T08:15:42.490Z,16.27
2024-01-18T08:18:10.451Z,17.50
2024-01-18T08:20:38.447Z,17.07
2024-01-18T08:23:06.582Z,13.00
2024-01-18T08:25:35.749Z,11.77
2024-01-18T08:28:03.394Z,14.00
2024-01-18T08:30:31.152Z,14.17
2024-01-18T08:33:00.094Z,17.57
2024-01-18T08:35:28.014Z,14.73
2024-01-18T08:37:55.782Z,14.90
2024-01-18T08:40:23.754Z,15.83
2024-01-18T08:42:53.017Z,13.83
2024-01-18T08:45:21.339Z,11.90
2024-01-18T08:47:49.674Z,10.77
2024-01-18T08:50:19.718Z,13.50
2024-01-18T08:52:47.367Z,11.50
2024-01-18T08:55:15.629Z,9.30
2024-01-18T08:57:43.323Z,11.30
2024-01-18T09:00:14.954Z,11.90
2024-01-18T09:02:43.987Z,10.87
2024-01-18T09:05:11.778Z,12.07
2024-01-18T09:07:39.588Z,16.80
2024-01-18T09:10:10.090Z,18.03
2024-01-18T09:12:37.865Z,17.40
2024-01-18T09:15:06.609Z,18.47
2024-01-18T09:17:35.754Z,17.00
2024-01-18T09:20:04.787Z,16.23
2024-01-18T09:26:00.231Z,17.20
2024-01-18T09:28:28.922Z,21.03
2024-01-18T09:30:56.599Z,14.33
2024-01-18T09:33:25.756Z,17.23
2024-01-18T09:36:05.200Z,17.83
2024-01-18T09:38:34.322Z,15.93
2024-01-18T09:41:06.625Z,19.70
2024-01-18T09:43:38.222Z,16.70
2024-01-18T09:46:08.090Z,19.93
2024-01-18T09:49:32.687Z,23.63
2024-01-18T09:52:02.613Z,17.80
2024-01-18T09:54:31.466Z,18.13
2024-01-18T09:57:23.595Z,19.50
2024-01-18T09:59:52.933Z,18.80
2024-01-18T10:02:21.972Z,18.23
2024-01-18T10:04:51.036Z,24.27
2024-01-18T10:07:20.137Z,18.10
2024-01-18T10:09:48.479Z,16.77
2024-01-18T10:12:16.714Z,16.50
2024-01-18T10:14:46.422Z,13.67
2024-01-18T10:17:22.738Z,14.80
2024-01-18T10:19:56.741Z,15.80
2024-01-18T10:22:26.142Z,14.00
2024-01-18T10:24:55.022Z,16.77
2024-01-18T10:27:24.678Z,16.70
2024-01-18T10:29:52.310Z,17.93
2024-01-18T10:32:20.413Z,12.83
2024-01-18T10:34:49.153Z,16.53
2024-01-18T10:37:18.893Z,17.50
2024-01-18T10:39:50.096Z,16.03
2024-01-18T10:42:22.252Z,13.80
2024-01-18T10:44:53.125Z,15.20
2024-01-18T10:47:20.824Z,14.70
2024-01-18T10:49:49.028Z,13.73
2024-01-18T10:52:19.186Z,15.40
2024-01-18T10:54:54.282Z,16.53
2024-01-18T10:57:26.035Z,10.07
2024-01-18T10:59:56.591Z,13.17
2024-01-18T11:02:28.156Z,11.20
2024-01-18T11:04:56.672Z,12.67
2024-01-18T11:07:25.413Z,11.77
2024-01-18T11:09:55.027Z,13.37
2024-01-18T11:12:26.151Z,10.73
2024-01-18T11:15:00.411Z,12.40
2024-01-18T11:17:29.116Z,14.20
2024-01-18T11:20:02.082Z,13.63
2024-01-18T11:22:31.707Z,11.47
2024-01-18T11:25:11.484Z,11.23
2024-01-18T11:27:40.849Z,9.93
2024-01-18T11:30:12.141Z,11.83
2024-01-18T11:32:40.375Z,9.60
2024-01-18T11:35:13.193Z,14.97
2024-01-18T11:37:41.293Z,10.47
2024-01-18T11:40:15.614Z,9.77
2024-01-18T11:42:51.951Z,10.13
2024-01-18T11:45:26.424Z,8.03
2024-01-18T11:48:02.849Z,12.83
2024-01-18T11:50:33.489Z,12.00
2024-01-18T11:53:04.007Z,11.13
2024-01-18T11:55:37.591Z,12.73
2024-01-18T11:58:05.717Z,10.70
2024-01-18T12:00:33.978Z,12.20
2024-01-18T12:03:10.793Z,10.93
2024-01-18T12:05:39.815Z,7.43
2024-01-18T12:08:15.707Z,9.53
2024-01-18T12:10:47.901Z,7.73
2024-01-18T12:13:16.607Z,11.27
2024-01-18T12:15:51.210Z,8.23
2024-01-18T12:18:19.228Z,9.70
2024-01-18T12:20:46.933Z,7.37
2024-01-18T12:23:16.212Z,9.77
2024-01-18T12:25:46.601Z,10.90
2024-01-18T12:28:14.377Z,8.53
2024-01-18T12:30:44.317Z,8.67
2024-01-18T12:33:13.780Z,9.90
2024-01-18T12:35:44.107Z,8.03
2024-01-18T12:38:13.197Z,10.50
2024-01-18T12:40:41.637Z,10.53
2024-01-18T12:43:10.801Z,9.57
2024-01-18T12:45:38.580Z,7.20
2024-01-18T12:48:16.244Z,9.88
2024-01-18T12:50:44.677Z,8.70
2024-01-18T12:53:14.003Z,7.30
2024-01-18T12:55:42.341Z,6.53
2024-01-18T12:58:14.617Z,12.43
2024-01-18T13:00:42.601Z,8.83
2024-01-18T13:03:19.304Z,10.20
2024-01-18T13:05:49.981Z,17.37
2024-01-18T13:08:19.543Z,7.60
2024-01-18T13:10:48.534Z,7.33
2024-01-18T13:13:31.416Z,7.80
2024-01-18T13:16:00.050Z,5.77
2024-01-18T13:18:28.881Z,5.73
2024-01-18T13:20:56.728Z,4.70
2024-01-18T13:23:24.566Z,6.23
2024-01-18T13:25:53.765Z,5.50
2024-01-18T13:28:23.348Z,7.90
2024-01-18T13:30:54.384Z,6.43
2024-01-18T13:33:22.508Z,8.20
2024-01-18T13:35:50.707Z,6.07
2024-01-18T13:38:18.444Z,5.53
2024-01-18T13:40:49.082Z,6.70
2024-01-18T13:43:17.131Z,3.13
2024-01-18T13:45:46.998Z,4.10
2024-01-18T13:48:15.124Z,7.10
2024-01-18T13:50:46.513Z,9.17
2024-01-18T13:53:17.644Z,6.40
2024-01-18T13:55:46.302Z,11.53
2024-01-18T13:58:18.117Z,6.73
2024-01-18T14:00:51.795Z,6.93
2024-01-18T14:03:20.331Z,7.80
2024-01-18T14:05:50.559Z,8.60
2024-01-18T14:08:20.864Z,8.23
2024-01-18T14:10:50.032Z,6.23
2024-01-18T14:13:20.049Z,6.30
2024-01-18T14:15:53.390Z,7.47
2024-01-18T14:18:23.203Z,8.03
2024-01-18T14:20:51.485Z,9.83
2024-01-18T14:23:19.917Z,6.50
2024-01-18T14:25:47.624Z,5.50
2024-01-18T14:28:15.490Z,5.70
2024-01-18T14:30:43.115Z,8.77
2024-01-18T14:33:14.787Z,9.10
2024-01-18T14:35:44.017Z,10.23
2024-01-18T14:38:11.725Z,10.87
2024-01-18T14:40:39.444Z,8.57
2024-01-18T14:43:08.504Z,11.03
2024-01-18T14:45:42.377Z,8.50
2024-01-18T14:56:07.749Z,8.90
2024-01-18T14:59:04.648Z,10.67
2024-01-18T15:04:16.454Z,8.07
2024-01-18T15:06:46.090Z,8.07
2024-01-18T15:09:15.243Z,8.80
2024-01-18T15:11:43.018Z,10.33
2024-01-18T15:14:10.947Z,6.57
2024-01-18T15:16:46.985Z,7.00
2024-01-18T15:19:23.592Z,12.80
2024-01-18T15:21:52.372Z,8.10
2024-01-18T15:24:23.160Z,8.97
2024-01-18T15:26:51.017Z,12.77
2024-01-18T15:29:20.442Z,9.77
2024-01-18T15:31:48.194Z,9.73
2024-01-18T15:34:34.912Z,5.00
2024-01-18T15:39:52.525Z,7.47
2024-01-18T15:42:20.563Z,8.10
2024-01-18T15:44:48.619Z,6.17
2024-01-18T15:53:10.994Z,10.00
2024-01-18T15:55:41.134Z,7.10
2024-01-18T15:58:09.234Z,8.90
2024-01-18T16:00:39.805Z,7.50
2024-01-18T16:03:08.644Z,6.57
2024-01-18T16:05:36.521Z,7.50
2024-01-18T16:08:08.817Z,10.20
2024-01-18T16:10:36.863Z,8.33
2024-01-18T16:13:07.272Z,9.27
2024-01-18T16:15:36.777Z,7.43
2024-01-18T16:18:04.758Z,9.43
2024-01-18T16:20:35.484Z,8.93
2024-01-18T16:23:04.097Z,8.97
2024-01-18T16:25:31.818Z,11.13
2024-01-18T16:28:01.032Z,7.70
2024-01-18T16:30:33.314Z,10.90
2024-01-18T16:33:03.628Z,6.60
2024-01-18T16:35:31.328Z,5.23
2024-01-18T16:38:02.048Z,6.13
2024-01-18T16:40:33.109Z,7.07
2024-01-18T16:43:01.920Z,9.10
2024-01-18T16:45:30.042Z,8.50
2024-01-18T16:48:23.185Z,5.70
2024-01-18T16:50:59.589Z,13.13
2024-01-18T16:53:35.020Z,4.97
2024-01-18T16:56:13.713Z,5.27
2024-01-18T16:58:45.208Z,6.90
2024-01-18T17:01:13.530Z,6.40
2024-01-18T17:03:45.634Z,5.90
2024-01-18T17:06:14.695Z,7.60
2024-01-18T17:08:42.841Z,9.30
2024-01-18T17:11:19.865Z,5.87
2024-01-18T17:16:36.400Z,7.37
2024-01-18T17:19:05.820Z,11.50
2024-01-18T17:21:34.161Z,6.97
2024-01-18T17:24:02.395Z,6.90
2024-01-18T17:26:30.467Z,9.97
2024-01-18T17:28:58.193Z,10.23
2024-01-18T17:31:25.994Z,5.70
2024-01-18T17:33:54.948Z,5.20
2024-01-18T17:36:24.559Z,7.43
2024-01-18T17:38:53.258Z,6.20
2024-01-18T17:41:20.922Z,4.53
2024-01-18T17:43:48.864Z,7.60
2024-01-18T17:46:16.635Z,5.57
2024-01-18T17:48:46.493Z,5.83
2024-01-18T17:51:16.548Z,5.50
2024-01-18T17:53:49.502Z,5.57
2024-01-18T17:56:17.176Z,10.37
2024-01-18T17:58:44.908Z,9.30
2024-01-18T18:01:13.331Z,10.00
2024-01-18T18:03:42.756Z,12.60
2024-01-18T18:06:10.474Z,11.63
2024-01-18T18:08:39.476Z,20.20
2024-01-18T18:11:08.635Z,14.30
2024-01-18T18:13:36.846Z,25.10
2024-01-18T18:16:05.023Z,18.97
2024-01-18T18:18:32.914Z,15.37
2024-01-18T18:21:00.884Z,18.17
2024-01-18T18:23:28.898Z,18.50
2024-01-18T18:25:56.906Z,18.97
2024-01-18T18:28:25.969Z,23.17
2024-01-18T18:30:58.073Z,21.20
2024-01-18T18:33:28.082Z,17.30
2024-01-18T18:35:56.028Z,22.10
2024-01-18T18:38:30.081Z,22.40
2024-01-18T18:41:02.377Z,22.40
2024-01-18T18:43:34.224Z,23.63
2024-01-18T18:46:04.940Z,19.40
2024-01-18T18:48:39.652Z,23.63
2024-01-18T18:51:08.112Z,24.80
2024-01-18T18:53:38.944Z,20.43
2024-01-18T18:56:07.115Z,21.90
2024-01-18T18:58:36.191Z,24.00
2024-01-18T19:01:04.000Z,25.07
2024-01-18T19:03:31.826Z,23.00
2024-01-18T19:05:59.991Z,24.37
2024-01-18T19:08:27.968Z,22.13
2024-01-18T19:10:56.852Z,22.20
2024-01-18T19:13:25.266Z,19.30
2024-01-18T19:15:56.958Z,24.83
2024-01-18T19:18:24.795Z,22.20
2024-01-18T19:20:52.978Z,27.77
2024-01-18T19:23:20.846Z,25.43
2024-01-18T19:25:48.789Z,28.50
2024-01-18T19:28:16.643Z,28.97
2024-01-18T19:30:44.608Z,25.23
2024-01-18T19:33:14.838Z,25.50
2024-01-18T19:35:42.651Z,23.33
2024-01-18T19:38:10.474Z,25.73
2024-01-18T19:40:39.703Z,27.67
2024-01-18T19:43:08.642Z,22.37
2024-01-18T19:45:36.778Z,21.57
2024-01-18T19:48:05.288Z,26.20
2024-01-18T19:50:37.387Z,24.23
2024-01-18T19:53:06.778Z,30.47
2024-01-18T19:55:48.650Z,31.03
2024-01-18T19:58:18.397Z,24.70
2024-01-18T20:00:46.173Z,30.97
2024-01-18T20:03:14.568Z,25.37
2024-01-18T20:05:43.958Z,25.00
2024-01-18T20:08:12.681Z,27.73
2024-01-18T20:10:40.764Z,20.67
2024-01-18T20:13:09.441Z,25.07
2024-01-18T20:15:38.907Z,27.07
2024-01-18T20:18:14.651Z,30.27
2024-01-18T20:20:48.104Z,26.17
2024-01-18T20:23:16.229Z,22.90
2024-01-18T20:25:44.380Z,27.73
2024-01-18T20:28:12.328Z,22.67
2024-01-18T20:30:40.929Z,23.87
2024-01-18T20:33:09.414Z,21.60
2024-01-18T20:35:37.514Z,24.63
2024-01-18T20:38:09.408Z,26.17
2024-01-18T20:40:37.241Z,29.60
2024-01-18T20:43:05.835Z,27.10
2024-01-18T20:45:35.201Z,25.40
2024-01-18T20:48:03.043Z,22.47
2024-01-18T20:50:30.868Z,25.87
2024-01-18T20:52:58.796Z,23.37
2024-01-18T20:55:27.900Z,26.70
2024-01-18T20:57:55.517Z,29.37
2024-01-18T21:00:28.961Z,22.00
2024-01-18T21:03:02.873Z,19.87
2024-01-18T21:05:30.654Z,22.07
2024-01-18T21:07:58.750Z,20.43
2024-01-18T21:10:27.958Z,24.60
2024-01-18T21:12:55.818Z,22.67
2024-01-18T21:15:23.510Z,27.33
2024-01-18T21:17:51.482Z,24.47
2024-01-18T21:20:19.347Z,24.80
2024-01-18T21:22:47.829Z,30.20
2024-01-18T21:25:15.488Z,22.37
2024-01-18T21:27:44.666Z,23.97
2024-01-18T21:30:13.097Z,20.33
2024-01-18T21:32:41.613Z,27.67
2024-01-18T21:35:09.598Z,28.10
2024-01-18T21:37:37.403Z,22.60
2024-01-18T21:40:05.908Z,29.23
2024-01-18T21:42:34.846Z,25.70
2024-01-18T21:45:08.185Z,25.93
2024-01-18T21:47:36.995Z,31.33
2024-01-18T21:50:05.486Z,27.50
2024-01-18T21:52:33.384Z,25.33
2024-01-18T21:55:02.094Z,25.07
2024-01-18T21:57:30.846Z,28.40
2024-01-18T22:00:00.028Z,23.47
2024-01-18T22:02:31.867Z,25.17
2024-01-18T22:05:00.506Z,33.87
2024-01-18T22:07:29.233Z,36.80
2024-01-18T22:10:01.840Z,31.60
2024-01-18T22:12:30.455Z,27.53
2024-01-18T22:15:00.974Z,31.73
2024-01-18T22:17:39.907Z,34.07
2024-01-18T22:20:24.245Z,28.10
2024-01-18T22:23:00.772Z,34.60
2024-01-18T22:25:29.444Z,32.07
2024-01-18T22:27:58.623Z,28.80
2024-01-18T22:30:31.131Z,32.27
2024-01-18T22:33:12.262Z,32.87
2024-01-18T22:35:45.680Z,33.40
2024-01-18T22:38:41.005Z,29.90
2024-01-18T22:41:26.591Z,34.47
2024-01-18T22:44:02.973Z,30.07
2024-01-18T22:46:31.854Z,36.03
2024-01-18T22:49:01.344Z,38.60
2024-01-18T22:51:29.404Z,26.90
2024-01-18T22:53:57.175Z,31.83
2024-01-18T22:56:24.994Z,35.33
2024-01-18T22:58:52.657Z,29.23
2024-01-18T23:01:20.295Z,24.40
2024-01-18T23:03:49.010Z,29.60
2024-01-18T23:06:18.520Z,29.30
2024-01-18T23:08:46.879Z,24.43
2024-01-18T23:11:14.893Z,31.27
2024-01-18T23:13:43.606Z,24.80
2024-01-18T23:16:12.216Z,32.53
2024-01-18T23:18:40.413Z,26.30
2024-01-18T23:21:08.122Z,29.00
2024-01-18T23:23:37.643Z,32.97
2024-01-18T23:26:07.351Z,31.43
2024-01-18T23:28:37.894Z,30.30
2024-01-18T23:31:05.959Z,30.57
2024-01-18T23:33:33.979Z,35.30
2024-01-18T23:36:01.869Z,29.70
2024-01-18T23:38:29.593Z,31.87
2024-01-18T23:40:58.966Z,31.53
2024-01-18T23:43:26.811Z,30.00
2024-01-18T23:45:54.560Z,28.13
2024-01-18T23:48:22.497Z,25.83
2024-01-18T23:50:50.405Z,32.60
2024-01-18T23:53:18.193Z,31.00
2024-01-18T23:55:46.184Z,32.97
2024-01-18T23:58:15.343Z,29.90
